sensor_id;sensor_type;location;lat;lon;timestamp;P1;durP1;ratioP1;P2;durP2;ratioP2
28958;SDS011;16066;0.000;0.000;2022-08-21T00:00:06;11.93;;;5.87;;
28958;SDS011;16066;0.000;0.000;2022-08-21T00:02:35;11.83;;;6.70;;
28958;SDS011;16066;0.000;0.000;2022-08-21T00:05:00;7.43;;;5.00;;
28958;SDS011;16066;0.000;0.000;2022-08-21T00:07:27;10.70;;;5.73;;
28958;SDS011;16066;0.000;0.000;2022-08-21T00:09:52;9.37;;;5.13;;
28958;SDS011;16066;0.000;0.000;2022-08-21T00:12:19;6.80;;;5.37;;
28958;SDS011;16066;0.000;0.000;2022-08-21T00:14:45;9.87;;;5.80;;
28958;SDS011;16066;0.000;0.000;2022-08-21T00:17:10;9.97;;;5.37;;
28958;SDS011;16066;0.000;0.000;2022-08-21T00:19:36;10.30;;;6.30;;
28958;SDS011;16066;0.000;0.000;2022-08-21T00:22:01;6.87;;;5.17;;
28958;SDS011;16066;0.000;0.000;2022-08-21T00:24:27;15.43;;;5.70;;
28958;SDS011;16066;0.000;0.000;2022-08-21T00:26:53;8.33;;;5.37;;
28958;SDS011;16066;0.000;0.000;2022-08-21T00:29:18;11.40;;;6.27;;
28958;SDS011;16066;0.000;0.000;2022-08-21T00:31:44;9.83;;;5.00;;
28958;SDS011;16066;0.000;0.000;2022-08-21T00:34:10;11.20;;;5.57;;
28958;SDS011;16066;0.000;0.000;2022-08-21T00:36:36;6.93;;;5.13;;
28958;SDS011;16066;0.000;0.000;2022-08-21T00:39:04;8.23;;;4.80;;
28958;SDS011;16066;0.000;0.000;2022-08-21T00:41:31;9.60;;;4.83;;
28958;SDS011;16066;0.000;0.000;2022-08-21T00:43:58;10.23;;;5.07;;
28958;SDS011;16066;0.000;0.000;2022-08-21T00:46:24;12.60;;;7.47;;
28958;SDS011;16066;0.000;0.000;2022-08-21T00:48:50;8.13;;;5.33;;
28958;SDS011;16066;0.000;0.000;2022-08-21T00:51:17;9.30;;;5.30;;
28958;SDS011;16066;0.000;0.000;2022-08-21T00:53:48;20.67;;;5.30;;
28958;SDS011;16066;0.000;0.000;2022-08-21T00:56:17;9.63;;;5.03;;
28958;SDS011;16066;0.000;0.000;2022-08-21T00:58:44;7.30;;;5.47;;
28958;SDS011;16066;0.000;0.000;2022-08-21T01:01:11;10.63;;;5.70;;
28958;SDS011;16066;0.000;0.000;2022-08-21T01:03:37;8.97;;;4.93;;
28958;SDS011;16066;0.000;0.000;2022-08-21T01:06:03;9.27;;;5.27;;
28958;SDS011;16066;0.000;0.000;2022-08-21T01:08:30;8.60;;;5.20;;
28958;SDS011;16066;0.000;0.000;2022-08-21T01:10:56;7.47;;;5.97;;
28958;SDS011;16066;0.000;0.000;2022-08-21T01:13:23;8.67;;;5.13;;
28958;SDS011;16066;0.000;0.000;2022-08-21T01:15:50;8.30;;;5.10;;
28958;SDS011;16066;0.000;0.000;2022-08-21T01:18:18;8.87;;;5.33;;
28958;SDS011;16066;0.000;0.000;2022-08-21T01:23:29;7.13;;;4.83;;
28958;SDS011;16066;0.000;0.000;2022-08-21T01:25:55;10.43;;;5.10;;
28958;SDS011;16066;0.000;0.000;2022-08-21T01:28:20;7.33;;;5.17;;
28958;SDS011;16066;0.000;0.000;2022-08-21T01:30:46;7.30;;;5.50;;
28958;SDS011;16066;0.000;0.000;2022-08-21T01:33:15;11.57;;;5.40;;
28958;SDS011;16066;0.000;0.000;2022-08-21T01:35:43;10.47;;;4.70;;
28958;SDS011;16066;0.000;0.000;2022-08-21T01:38:08;8.73;;;5.30;;
28958;SDS011;16066;0.000;0.000;2022-08-21T01:40:34;12.40;;;5.80;;
28958;SDS011;16066;0.000;0.000;2022-08-21T01:43:00;10.23;;;6.13;;
28958;SDS011;16066;0.000;0.000;2022-08-21T01:45:25;10.33;;;5.83;;
28958;SDS011;16066;0.000;0.000;2022-08-21T01:47:51;7.00;;;4.67;;
28958;SDS011;16066;0.000;0.000;2022-08-21T01:50:17;7.63;;;5.57;;
28958;SDS011;16066;0.000;0.000;2022-08-21T01:52:44;12.53;;;6.17;;
28958;SDS011;16066;0.000;0.000;2022-08-21T01:55:10;10.43;;;5.73;;
28958;SDS011;16066;0.000;0.000;2022-08-21T01:57:37;11.13;;;5.57;;
28958;SDS011;16066;0.000;0.000;2022-08-21T02:00:08;7.30;;;5.20;;
28958;SDS011;16066;0.000;0.000;2022-08-21T02:02:36;10.60;;;5.80;;
28958;SDS011;16066;0.000;0.000;2022-08-21T02:05:02;9.27;;;5.07;;
28958;SDS011;16066;0.000;0.000;2022-08-21T02:07:35;11.27;;;5.07;;
28958;SDS011;16066;0.000;0.000;2022-08-21T02:10:12;7.10;;;5.17;;
28958;SDS011;16066;0.000;0.000;2022-08-21T02:12:40;6.87;;;4.63;;
28958;SDS011;16066;0.000;0.000;2022-08-21T02:15:06;16.10;;;5.67;;
28958;SDS011;16066;0.000;0.000;2022-08-21T02:17:42;8.43;;;5.23;;
28958;SDS011;16066;0.000;0.000;2022-08-21T02:20:15;6.23;;;4.80;;
28958;SDS011;16066;0.000;0.000;2022-08-21T02:22:43;6.60;;;4.50;;
28958;SDS011;16066;0.000;0.000;2022-08-21T02:25:08;7.10;;;4.60;;
28958;SDS011;16066;0.000;0.000;2022-08-21T02:27:41;9.40;;;5.10;;
28958;SDS011;16066;0.000;0.000;2022-08-21T02:30:09;7.40;;;5.17;;
28958;SDS011;16066;0.000;0.000;2022-08-21T02:32:37;5.93;;;4.47;;
28958;SDS011;16066;0.000;0.000;2022-08-21T02:35:03;8.10;;;4.53;;
28958;SDS011;16066;0.000;0.000;2022-08-21T02:37:30;7.77;;;5.47;;
28958;SDS011;16066;0.000;0.000;2022-08-21T02:39:55;11.80;;;5.13;;
28958;SDS011;16066;0.000;0.000;2022-08-21T02:42:21;7.30;;;5.37;;
28958;SDS011;16066;0.000;0.000;2022-08-21T02:44:46;9.17;;;5.10;;
28958;SDS011;16066;0.000;0.000;2022-08-21T02:47:13;8.27;;;4.60;;
28958;SDS011;16066;0.000;0.000;2022-08-21T02:49:39;9.47;;;4.93;;
28958;SDS011;16066;0.000;0.000;2022-08-21T02:52:04;7.60;;;5.10;;
28958;SDS011;16066;0.000;0.000;2022-08-21T02:54:30;10.60;;;5.57;;
28958;SDS011;16066;0.000;0.000;2022-08-21T02:56:56;8.40;;;4.57;;
28958;SDS011;16066;0.000;0.000;2022-08-21T02:59:22;11.13;;;4.80;;
28958;SDS011;16066;0.000;0.000;2022-08-21T03:01:47;6.93;;;4.33;;
28958;SDS011;16066;0.000;0.000;2022-08-21T03:04:13;9.57;;;4.70;;
28958;SDS011;16066;0.000;0.000;2022-08-21T03:06:38;9.03;;;4.60;;
28958;SDS011;16066;0.000;0.000;2022-08-21T03:09:04;8.80;;;5.20;;
28958;SDS011;16066;0.000;0.000;2022-08-21T03:11:29;7.53;;;4.80;;
28958;SDS011;16066;0.000;0.000;2022-08-21T03:13:55;8.80;;;4.50;;
28958;SDS011;16066;0.000;0.000;2022-08-21T03:16:20;8.10;;;4.87;;
28958;SDS011;16066;0.000;0.000;2022-08-21T03:18:46;7.13;;;4.03;;
28958;SDS011;16066;0.000;0.000;2022-08-21T03:21:12;8.73;;;5.10;;
28958;SDS011;16066;0.000;0.000;2022-08-21T03:23:38;8.27;;;4.80;;
28958;SDS011;16066;0.000;0.000;2022-08-21T03:26:04;9.60;;;4.40;;
28958;SDS011;16066;0.000;0.000;2022-08-21T03:28:30;6.33;;;4.80;;
28958;SDS011;16066;0.000;0.000;2022-08-21T03:30:56;6.40;;;3.90;;
28958;SDS011;16066;0.000;0.000;2022-08-21T03:33:21;7.70;;;4.20;;
28958;SDS011;16066;0.000;0.000;2022-08-21T03:35:48;7.23;;;4.47;;
28958;SDS011;16066;0.000;0.000;2022-08-21T03:38:23;5.93;;;4.27;;
28958;SDS011;16066;0.000;0.000;2022-08-21T03:40:49;5.73;;;4.37;;
28958;SDS011;16066;0.000;0.000;2022-08-21T03:43:14;6.00;;;3.93;;
28958;SDS011;16066;0.000;0.000;2022-08-21T03:45:40;7.57;;;4.47;;
28958;SDS011;16066;0.000;0.000;2022-08-21T03:48:05;8.67;;;4.53;;
28958;SDS011;16066;0.000;0.000;2022-08-21T03:50:33;11.00;;;4.53;;
28958;SDS011;16066;0.000;0.000;2022-08-21T03:53:02;9.60;;;4.37;;
28958;SDS011;16066;0.000;0.000;2022-08-21T03:55:28;8.37;;;4.43;;
28958;SDS011;16066;0.000;0.000;2022-08-21T03:57:54;5.47;;;3.93;;
28958;SDS011;16066;0.000;0.000;2022-08-21T04:00:21;11.13;;;5.07;;
28958;SDS011;16066;0.000;0.000;2022-08-21T04:02:47;6.90;;;4.70;;
28958;SDS011;16066;0.000;0.000;2022-08-21T04:05:13;6.23;;;4.17;;
28958;SDS011;16066;0.000;0.000;2022-08-21T04:07:51;5.83;;;4.13;;
28958;SDS011;16066;0.000;0.000;2022-08-21T04:10:25;8.30;;;4.40;;
28958;SDS011;16066;0.000;0.000;2022-08-21T04:12:52;8.93;;;4.50;;
28958;SDS011;16066;0.000;0.000;2022-08-21T04:15:19;7.07;;;4.40;;
28958;SDS011;16066;0.000;0.000;2022-08-21T04:17:46;9.00;;;4.30;;
28958;SDS011;16066;0.000;0.000;2022-08-21T04:20:11;9.03;;;4.43;;
28958;SDS011;16066;0.000;0.000;2022-08-21T04:22:37;7.83;;;5.10;;
28958;SDS011;16066;0.000;0.000;2022-08-21T04:25:03;7.00;;;4.67;;
28958;SDS011;16066;0.000;0.000;2022-08-21T04:27:30;6.70;;;4.40;;
28958;SDS011;16066;0.000;0.000;2022-08-21T04:29:55;8.10;;;4.23;;
28958;SDS011;16066;0.000;0.000;2022-08-21T04:32:24;6.17;;;4.00;;
28958;SDS011;16066;0.000;0.000;2022-08-21T04:34:50;8.60;;;4.90;;
28958;SDS011;16066;0.000;0.000;2022-08-21T04:37:16;7.17;;;4.50;;
28958;SDS011;16066;0.000;0.000;2022-08-21T04:39:42;7.80;;;4.87;;
28958;SDS011;16066;0.000;0.000;2022-08-21T04:42:07;7.10;;;4.40;;
28958;SDS011;16066;0.000;0.000;2022-08-21T04:44:33;7.53;;;4.57;;
28958;SDS011;16066;0.000;0.000;2022-08-21T04:46:59;6.70;;;4.87;;
28958;SDS011;16066;0.000;0.000;2022-08-21T04:49:24;10.93;;;4.67;;
28958;SDS011;16066;0.000;0.000;2022-08-21T04:51:50;8.03;;;4.93;;
28958;SDS011;16066;0.000;0.000;2022-08-21T04:54:20;7.20;;;4.30;;
28958;SDS011;16066;0.000;0.000;2022-08-21T04:56:51;10.63;;;5.10;;
28958;SDS011;16066;0.000;0.000;2022-08-21T04:59:22;8.00;;;4.90;;
28958;SDS011;16066;0.000;0.000;2022-08-21T05:01:56;7.43;;;4.17;;
28958;SDS011;16066;0.000;0.000;2022-08-21T05:04:23;7.30;;;4.90;;
28958;SDS011;16066;0.000;0.000;2022-08-21T05:06:51;7.23;;;4.70;;
28958;SDS011;16066;0.000;0.000;2022-08-21T05:09:19;8.50;;;4.80;;
28958;SDS011;16066;0.000;0.000;2022-08-21T05:11:46;6.00;;;4.77;;
28958;SDS011;16066;0.000;0.000;2022-08-21T05:14:13;6.37;;;3.70;;
28958;SDS011;16066;0.000;0.000;2022-08-21T05:16:40;10.60;;;5.17;;
28958;SDS011;16066;0.000;0.000;2022-08-21T05:19:06;8.07;;;4.30;;
28958;SDS011;16066;0.000;0.000;2022-08-21T05:21:33;6.27;;;4.53;;
28958;SDS011;16066;0.000;0.000;2022-08-21T05:24:00;5.60;;;4.00;;
28958;SDS011;16066;0.000;0.000;2022-08-21T05:26:25;7.83;;;4.90;;
28958;SDS011;16066;0.000;0.000;2022-08-21T05:28:51;6.87;;;4.80;;
28958;SDS011;16066;0.000;0.000;2022-08-21T05:31:17;8.20;;;4.33;;
28958;SDS011;16066;0.000;0.000;2022-08-21T05:33:42;13.73;;;4.87;;
28958;SDS011;16066;0.000;0.000;2022-08-21T05:36:08;6.90;;;5.00;;
28958;SDS011;16066;0.000;0.000;2022-08-21T05:38:33;9.25;;;5.45;;
28958;SDS011;16066;0.000;0.000;2022-08-21T05:40:59;7.50;;;4.57;;
28958;SDS011;16066;0.000;0.000;2022-08-21T05:43:25;6.43;;;4.60;;
28958;SDS011;16066;0.000;0.000;2022-08-21T05:45:50;7.67;;;4.80;;
28958;SDS011;16066;0.000;0.000;2022-08-21T05:48:17;10.03;;;4.90;;
28958;SDS011;16066;0.000;0.000;2022-08-21T05:50:44;7.80;;;4.53;;
28958;SDS011;16066;0.000;0.000;2022-08-21T05:53:12;8.27;;;4.60;;
28958;SDS011;16066;0.000;0.000;2022-08-21T05:55:39;10.30;;;5.37;;
28958;SDS011;16066;0.000;0.000;2022-08-21T05:58:05;7.13;;;5.43;;
28958;SDS011;16066;0.000;0.000;2022-08-21T06:00:31;7.70;;;4.67;;
28958;SDS011;16066;0.000;0.000;2022-08-21T06:02:57;13.77;;;5.43;;
28958;SDS011;16066;0.000;0.000;2022-08-21T06:05:23;8.50;;;5.20;;
28958;SDS011;16066;0.000;0.000;2022-08-21T06:07:49;10.30;;;4.67;;
28958;SDS011;16066;0.000;0.000;2022-08-21T06:10:14;11.17;;;4.43;;
28958;SDS011;16066;0.000;0.000;2022-08-21T06:12:40;8.27;;;4.70;;
28958;SDS011;16066;0.000;0.000;2022-08-21T06:15:06;7.87;;;4.83;;
28958;SDS011;16066;0.000;0.000;2022-08-21T06:17:31;8.07;;;6.00;;
28958;SDS011;16066;0.000;0.000;2022-08-21T06:19:57;9.20;;;5.50;;
28958;SDS011;16066;0.000;0.000;2022-08-21T06:22:22;13.70;;;7.17;;
28958;SDS011;16066;0.000;0.000;2022-08-21T06:24:48;10.40;;;5.60;;
28958;SDS011;16066;0.000;0.000;2022-08-21T06:27:14;10.63;;;5.13;;
28958;SDS011;16066;0.000;0.000;2022-08-21T06:29:40;9.80;;;5.07;;
28958;SDS011;16066;0.000;0.000;2022-08-21T06:32:06;11.50;;;4.87;;
28958;SDS011;16066;0.000;0.000;2022-08-21T06:34:36;8.47;;;5.90;;
28958;SDS011;16066;0.000;0.000;2022-08-21T06:37:03;13.33;;;4.97;;
28958;SDS011;16066;0.000;0.000;2022-08-21T06:39:29;12.40;;;5.40;;
28958;SDS011;16066;0.000;0.000;2022-08-21T06:41:54;8.17;;;4.93;;
28958;SDS011;16066;0.000;0.000;2022-08-21T06:44:20;11.20;;;4.90;;
28958;SDS011;16066;0.000;0.000;2022-08-21T06:46:46;8.60;;;5.97;;
28958;SDS011;16066;0.000;0.000;2022-08-21T06:49:12;13.53;;;6.30;;
28958;SDS011;16066;0.000;0.000;2022-08-21T06:51:38;8.43;;;4.67;;
28958;SDS011;16066;0.000;0.000;2022-08-21T06:54:04;13.60;;;5.47;;
28958;SDS011;16066;0.000;0.000;2022-08-21T06:56:29;11.47;;;6.57;;
28958;SDS011;16066;0.000;0.000;2022-08-21T06:58:55;12.07;;;6.23;;
28958;SDS011;16066;0.000;0.000;2022-08-21T07:01:21;19.53;;;6.40;;
28958;SDS011;16066;0.000;0.000;2022-08-21T07:03:49;10.50;;;5.17;;
28958;SDS011;16066;0.000;0.000;2022-08-21T07:06:15;13.73;;;5.80;;
28958;SDS011;16066;0.000;0.000;2022-08-21T07:08:40;9.43;;;4.13;;
28958;SDS011;16066;0.000;0.000;2022-08-21T07:11:11;19.83;;;6.57;;
28958;SDS011;16066;0.000;0.000;2022-08-21T07:13:40;12.07;;;5.80;;
28958;SDS011;16066;0.000;0.000;2022-08-21T07:16:06;12.53;;;5.40;;
28958;SDS011;16066;0.000;0.000;2022-08-21T07:18:31;8.03;;;5.07;;
28958;SDS011;16066;0.000;0.000;2022-08-21T07:20:57;14.83;;;5.03;;
28958;SDS011;16066;0.000;0.000;2022-08-21T07:23:24;11.87;;;5.33;;
28958;SDS011;16066;0.000;0.000;2022-08-21T07:25:53;11.50;;;4.77;;
28958;SDS011;16066;0.000;0.000;2022-08-21T07:28:18;11.60;;;4.07;;
28958;SDS011;16066;0.000;0.000;2022-08-21T07:30:44;8.50;;;4.30;;
28958;SDS011;16066;0.000;0.000;2022-08-21T07:33:11;11.13;;;4.90;;
28958;SDS011;16066;0.000;0.000;2022-08-21T07:35:37;10.13;;;4.77;;
28958;SDS011;16066;0.000;0.000;2022-08-21T07:38:03;9.60;;;4.40;;
28958;SDS011;16066;0.000;0.000;2022-08-21T07:40:29;11.20;;;4.67;;
28958;SDS011;16066;0.000;0.000;2022-08-21T07:42:54;8.67;;;4.20;;
28958;SDS011;16066;0.000;0.000;2022-08-21T07:45:20;10.10;;;4.70;;
28958;SDS011;16066;0.000;0.000;2022-08-21T07:47:49;11.27;;;4.77;;
28958;SDS011;16066;0.000;0.000;2022-08-21T07:50:14;9.43;;;4.47;;
28958;SDS011;16066;0.000;0.000;2022-08-21T07:52:41;6.57;;;4.13;;
28958;SDS011;16066;0.000;0.000;2022-08-21T07:55:08;12.23;;;4.20;;
28958;SDS011;16066;0.000;0.000;2022-08-21T07:57:36;9.90;;;3.90;;
28958;SDS011;16066;0.000;0.000;2022-08-21T08:00:05;9.90;;;4.33;;
28958;SDS011;16066;0.000;0.000;2022-08-21T08:02:33;9.03;;;3.70;;
28958;SDS011;16066;0.000;0.000;2022-08-21T08:04:59;9.70;;;3.30;;
28958;SDS011;16066;0.000;0.000;2022-08-21T08:07:26;8.27;;;3.63;;
28958;SDS011;16066;0.000;0.000;2022-08-21T08:09:52;7.40;;;3.70;;
28958;SDS011;16066;0.000;0.000;2022-08-21T08:12:18;12.27;;;3.20;;
28958;SDS011;16066;0.000;0.000;2022-08-21T08:14:43;5.33;;;2.83;;
28958;SDS011;16066;0.000;0.000;2022-08-21T08:17:09;4.40;;;2.70;;
28958;SDS011;16066;0.000;0.000;2022-08-21T08:19:35;8.87;;;3.20;;
28958;SDS011;16066;0.000;0.000;2022-08-21T08:22:00;6.10;;;2.60;;
28958;SDS011;16066;0.000;0.000;2022-08-21T08:24:26;8.73;;;3.27;;
28958;SDS011;16066;0.000;0.000;2022-08-21T08:26:52;7.43;;;3.10;;
28958;SDS011;16066;0.000;0.000;2022-08-21T08:29:19;7.80;;;2.73;;
28958;SDS011;16066;0.000;0.000;2022-08-21T08:31:45;11.93;;;2.30;;
28958;SDS011;16066;0.000;0.000;2022-08-21T08:34:11;6.40;;;2.40;;
28958;SDS011;16066;0.000;0.000;2022-08-21T08:36:36;7.60;;;2.67;;
28958;SDS011;16066;0.000;0.000;2022-08-21T08:39:02;4.50;;;2.30;;
28958;SDS011;16066;0.000;0.000;2022-08-21T08:41:29;11.10;;;2.33;;
28958;SDS011;16066;0.000;0.000;2022-08-21T08:43:57;10.40;;;3.10;;
28958;SDS011;16066;0.000;0.000;2022-08-21T08:51:42;10.00;;;2.57;;
28958;SDS011;16066;0.000;0.000;2022-08-21T08:54:28;11.10;;;2.73;;
28958;SDS011;16066;0.000;0.000;2022-08-21T08:56:59;6.80;;;2.77;;
28958;SDS011;16066;0.000;0.000;2022-08-21T08:59:27;4.63;;;2.27;;
28958;SDS011;16066;0.000;0.000;2022-08-21T09:02:20;7.10;;;3.17;;
28958;SDS011;16066;0.000;0.000;2022-08-21T09:04:48;7.73;;;3.50;;
28958;SDS011;16066;0.000;0.000;2022-08-21T09:15:41;12.30;;;3.83;;
28958;SDS011;16066;0.000;0.000;2022-08-21T09:18:38;4.90;;;2.90;;
28958;SDS011;16066;0.000;0.000;2022-08-21T09:21:09;11.73;;;3.30;;
28958;SDS011;16066;0.000;0.000;2022-08-21T09:23:55;6.80;;;3.13;;
28958;SDS011;16066;0.000;0.000;2022-08-21T09:26:43;12.30;;;3.07;;
28958;SDS011;16066;0.000;0.000;2022-08-21T09:29:19;5.67;;;3.17;;
28958;SDS011;16066;0.000;0.000;2022-08-21T09:31:48;8.47;;;2.87;;
28958;SDS011;16066;0.000;0.000;2022-08-21T09:34:23;10.67;;;3.10;;
28958;SDS011;16066;0.000;0.000;2022-08-21T09:36:52;10.43;;;3.43;;
28958;SDS011;16066;0.000;0.000;2022-08-21T09:42:01;9.20;;;2.87;;
28958;SDS011;16066;0.000;0.000;2022-08-21T09:44:36;9.53;;;2.77;;
28958;SDS011;16066;0.000;0.000;2022-08-21T09:47:09;6.70;;;3.13;;
28958;SDS011;16066;0.000;0.000;2022-08-21T09:49:38;6.70;;;2.50;;
28958;SDS011;16066;0.000;0.000;2022-08-21T09:52:16;8.90;;;2.70;;
28958;SDS011;16066;0.000;0.000;2022-08-21T09:54:46;6.90;;;2.80;;
28958;SDS011;16066;0.000;0.000;2022-08-21T09:57:19;7.10;;;2.60;;
28958;SDS011;16066;0.000;0.000;2022-08-21T10:00:09;6.83;;;2.40;;
28958;SDS011;16066;0.000;0.000;2022-08-21T10:02:44;4.80;;;2.30;;
28958;SDS011;16066;0.000;0.000;2022-08-21T10:05:17;8.93;;;2.73;;
28958;SDS011;16066;0.000;0.000;2022-08-21T10:07:47;9.27;;;3.67;;
28958;SDS011;16066;0.000;0.000;2022-08-21T10:12:51;5.83;;;2.17;;
28958;SDS011;16066;0.000;0.000;2022-08-21T10:18:41;8.57;;;2.77;;
28958;SDS011;16066;0.000;0.000;2022-08-21T10:21:17;4.03;;;1.93;;
28958;SDS011;16066;0.000;0.000;2022-08-21T10:30:04;6.27;;;2.60;;
28958;SDS011;16066;0.000;0.000;2022-08-21T10:35:26;8.33;;;2.50;;
28958;SDS011;16066;0.000;0.000;2022-08-21T10:46:25;7.20;;;2.40;;
28958;SDS011;16066;0.000;0.000;2022-08-21T10:49:07;9.00;;;2.40;;
28958;SDS011;16066;0.000;0.000;2022-08-21T10:57:32;4.63;;;2.07;;
28958;SDS011;16066;0.000;0.000;2022-08-21T11:00:06;4.83;;;2.43;;
28958;SDS011;16066;0.000;0.000;2022-08-21T11:02:42;4.83;;;2.03;;
28958;SDS011;16066;0.000;0.000;2022-08-21T11:07:48;5.10;;;2.10;;
28958;SDS011;16066;0.000;0.000;2022-08-21T11:13:00;5.87;;;2.20;;
28958;SDS011;16066;0.000;0.000;2022-08-21T11:18:14;5.00;;;2.10;;
28958;SDS011;16066;0.000;0.000;2022-08-21T11:23:33;7.10;;;2.20;;
28958;SDS011;16066;0.000;0.000;2022-08-21T11:26:41;4.17;;;2.00;;
28958;SDS011;16066;0.000;0.000;2022-08-21T11:29:26;5.10;;;2.00;;
28958;SDS011;16066;0.000;0.000;2022-08-21T11:40:10;5.47;;;2.20;;
28958;SDS011;16066;0.000;0.000;2022-08-21T11:42:44;4.90;;;2.00;;
28958;SDS011;16066;0.000;0.000;2022-08-21T11:45:22;5.80;;;2.33;;
28958;SDS011;16066;0.000;0.000;2022-08-21T11:50:30;7.63;;;2.60;;
28958;SDS011;16066;0.000;0.000;2022-08-21T11:53:01;4.33;;;1.83;;
28958;SDS011;16066;0.000;0.000;2022-08-21T11:55:40;6.77;;;2.27;;
28958;SDS011;16066;0.000;0.000;2022-08-21T11:58:22;4.60;;;1.80;;
28958;SDS011;16066;0.000;0.000;2022-08-21T12:01:00;5.70;;;2.13;;
28958;SDS011;16066;0.000;0.000;2022-08-21T12:03:33;6.37;;;1.90;;
28958;SDS011;16066;0.000;0.000;2022-08-21T12:06:02;2.83;;;1.67;;
28958;SDS011;16066;0.000;0.000;2022-08-21T12:08:32;2.83;;;1.80;;
28958;SDS011;16066;0.000;0.000;2022-08-21T12:11:03;5.30;;;2.00;;
28958;SDS011;16066;0.000;0.000;2022-08-21T12:13:37;5.40;;;2.07;;
28958;SDS011;16066;0.000;0.000;2022-08-21T12:16:06;1.87;;;1.27;;
28958;SDS011;16066;0.000;0.000;2022-08-21T12:18:34;7.63;;;1.70;;
28958;SDS011;16066;0.000;0.000;2022-08-21T12:23:47;2.77;;;1.63;;
28958;SDS011;16066;0.000;0.000;2022-08-21T12:26:27;3.97;;;1.80;;
28958;SDS011;16066;0.000;0.000;2022-08-21T12:29:04;3.93;;;2.10;;
28958;SDS011;16066;0.000;0.000;2022-08-21T12:31:47;2.70;;;1.53;;
28958;SDS011;16066;0.000;0.000;2022-08-21T12:34:15;4.00;;;1.80;;
28958;SDS011;16066;0.000;0.000;2022-08-21T12:36:44;6.83;;;2.00;;
28958;SDS011;16066;0.000;0.000;2022-08-21T12:39:15;4.07;;;1.57;;
28958;SDS011;16066;0.000;0.000;2022-08-21T12:41:51;4.90;;;2.53;;
28958;SDS011;16066;0.000;0.000;2022-08-21T12:44:24;6.67;;;2.13;;
28958;SDS011;16066;0.000;0.000;2022-08-21T12:46:57;3.10;;;1.80;;
28958;SDS011;16066;0.000;0.000;2022-08-21T12:49:35;6.07;;;2.23;;
28958;SDS011;16066;0.000;0.000;2022-08-21T12:55:00;6.57;;;2.00;;
28958;SDS011;16066;0.000;0.000;2022-08-21T12:57:27;4.33;;;1.70;;
28958;SDS011;16066;0.000;0.000;2022-08-21T12:59:55;4.10;;;1.90;;
28958;SDS011;16066;0.000;0.000;2022-08-21T13:02:25;4.80;;;2.13;;
28958;SDS011;16066;0.000;0.000;2022-08-21T13:04:56;5.07;;;2.47;;
28958;SDS011;16066;0.000;0.000;2022-08-21T13:07:25;4.03;;;2.07;;
28958;SDS011;16066;0.000;0.000;2022-08-21T13:09:57;3.80;;;1.53;;
28958;SDS011;16066;0.000;0.000;2022-08-21T13:12:26;3.60;;;1.57;;
28958;SDS011;16066;0.000;0.000;2022-08-21T13:14:55;2.83;;;1.50;;
28958;SDS011;16066;0.000;0.000;2022-08-21T13:17:24;2.60;;;1.60;;
28958;SDS011;16066;0.000;0.000;2022-08-21T13:20:03;5.90;;;1.63;;
28958;SDS011;16066;0.000;0.000;2022-08-21T13:22:42;5.60;;;1.83;;
28958;SDS011;16066;0.000;0.000;2022-08-21T13:25:12;3.53;;;1.70;;
28958;SDS011;16066;0.000;0.000;2022-08-21T13:27:40;4.70;;;1.47;;
28958;SDS011;16066;0.000;0.000;2022-08-21T13:30:20;2.23;;;1.90;;
28958;SDS011;16066;0.000;0.000;2022-08-21T13:32:48;3.60;;;1.60;;
28958;SDS011;16066;0.000;0.000;2022-08-21T13:35:17;2.93;;;2.07;;
28958;SDS011;16066;0.000;0.000;2022-08-21T13:37:50;3.40;;;1.70;;
28958;SDS011;16066;0.000;0.000;2022-08-21T13:40:20;11.80;;;2.13;;
28958;SDS011;16066;0.000;0.000;2022-08-21T13:42:51;5.90;;;1.63;;
28958;SDS011;16066;0.000;0.000;2022-08-21T13:45:25;3.10;;;1.70;;
28958;SDS011;16066;0.000;0.000;2022-08-21T13:47:56;2.90;;;1.50;;
28958;SDS011;16066;0.000;0.000;2022-08-21T13:50:23;1.90;;;1.40;;
28958;SDS011;16066;0.000;0.000;2022-08-21T13:52:54;3.50;;;2.07;;
28958;SDS011;16066;0.000;0.000;2022-08-21T13:55:39;3.13;;;2.10;;
28958;SDS011;16066;0.000;0.000;2022-08-21T13:58:07;5.87;;;2.13;;
28958;SDS011;16066;0.000;0.000;2022-08-21T14:00:35;3.30;;;1.53;;
28958;SDS011;16066;0.000;0.000;2022-08-21T14:03:23;3.23;;;1.73;;
28958;SDS011;16066;0.000;0.000;2022-08-21T14:05:53;2.83;;;1.40;;
28958;SDS011;16066;0.000;0.000;2022-08-21T14:08:27;1.77;;;1.40;;
28958;SDS011;16066;0.000;0.000;2022-08-21T14:10:59;4.60;;;1.70;;
28958;SDS011;16066;0.000;0.000;2022-08-21T14:13:31;2.23;;;1.40;;
28958;SDS011;16066;0.000;0.000;2022-08-21T14:16:53;4.60;;;1.83;;
28958;SDS011;16066;0.000;0.000;2022-08-21T14:19:26;2.10;;;1.60;;
28958;SDS011;16066;0.000;0.000;2022-08-21T14:25:05;2.00;;;1.40;;
28958;SDS011;16066;0.000;0.000;2022-08-21T14:27:48;3.20;;;1.80;;
28958;SDS011;16066;0.000;0.000;2022-08-21T14:30:34;2.80;;;1.30;;
28958;SDS011;16066;0.000;0.000;2022-08-21T14:33:02;2.40;;;1.60;;
28958;SDS011;16066;0.000;0.000;2022-08-21T14:35:29;3.67;;;1.67;;
28958;SDS011;16066;0.000;0.000;2022-08-21T14:37:55;2.90;;;1.67;;
28958;SDS011;16066;0.000;0.000;2022-08-21T14:40:21;1.97;;;1.40;;
28958;SDS011;16066;0.000;0.000;2022-08-21T14:42:48;2.20;;;1.50;;
28958;SDS011;16066;0.000;0.000;2022-08-21T14:45:16;4.07;;;1.70;;
28958;SDS011;16066;0.000;0.000;2022-08-21T14:47:53;1.90;;;1.40;;
28958;SDS011;16066;0.000;0.000;2022-08-21T14:50:19;5.57;;;2.00;;
28958;SDS011;16066;0.000;0.000;2022-08-21T14:52:44;4.17;;;2.30;;
28958;SDS011;16066;0.000;0.000;2022-08-21T14:55:11;4.17;;;2.23;;
28958;SDS011;16066;0.000;0.000;2022-08-21T14:57:41;2.27;;;2.07;;
28958;SDS011;16066;0.000;0.000;2022-08-21T15:00:15;3.37;;;1.90;;
28958;SDS011;16066;0.000;0.000;2022-08-21T15:02:43;5.77;;;1.90;;
28958;SDS011;16066;0.000;0.000;2022-08-21T15:05:09;5.33;;;2.47;;
28958;SDS011;16066;0.000;0.000;2022-08-21T15:07:34;6.13;;;1.93;;
28958;SDS011;16066;0.000;0.000;2022-08-21T15:10:00;3.53;;;2.00;;
28958;SDS011;16066;0.000;0.000;2022-08-21T15:12:26;4.43;;;1.70;;
28958;SDS011;16066;0.000;0.000;2022-08-21T15:14:52;2.00;;;1.57;;
28958;SDS011;16066;0.000;0.000;2022-08-21T15:17:18;4.13;;;1.80;;
28958;SDS011;16066;0.000;0.000;2022-08-21T15:19:43;2.63;;;1.40;;
28958;SDS011;16066;0.000;0.000;2022-08-21T15:22:09;4.10;;;1.83;;
28958;SDS011;16066;0.000;0.000;2022-08-21T15:24:35;2.50;;;1.60;;
28958;SDS011;16066;0.000;0.000;2022-08-21T15:27:01;3.63;;;1.63;;
28958;SDS011;16066;0.000;0.000;2022-08-21T15:29:29;5.10;;;1.70;;
28958;SDS011;16066;0.000;0.000;2022-08-21T15:31:57;2.67;;;1.33;;
28958;SDS011;16066;0.000;0.000;2022-08-21T15:34:28;2.53;;;1.60;;
28958;SDS011;16066;0.000;0.000;2022-08-21T15:36:55;4.20;;;1.63;;
28958;SDS011;16066;0.000;0.000;2022-08-21T15:39:22;2.13;;;1.40;;
28958;SDS011;16066;0.000;0.000;2022-08-21T15:41:48;2.53;;;1.40;;
28958;SDS011;16066;0.000;0.000;2022-08-21T15:44:14;3.03;;;1.77;;
28958;SDS011;16066;0.000;0.000;2022-08-21T15:46:40;3.13;;;1.40;;
28958;SDS011;16066;0.000;0.000;2022-08-21T15:49:06;5.17;;;1.50;;
28958;SDS011;16066;0.000;0.000;2022-08-21T15:51:33;4.57;;;1.57;;
28958;SDS011;16066;0.000;0.000;2022-08-21T15:53:59;5.17;;;1.60;;
28958;SDS011;16066;0.000;0.000;2022-08-21T15:56:44;1.93;;;1.30;;
28958;SDS011;16066;0.000;0.000;2022-08-21T15:59:13;1.60;;;1.27;;
28958;SDS011;16066;0.000;0.000;2022-08-21T16:01:41;2.80;;;1.93;;
28958;SDS011;16066;0.000;0.000;2022-08-21T16:04:08;3.63;;;1.30;;
28958;SDS011;16066;0.000;0.000;2022-08-21T16:06:34;2.30;;;1.47;;
28958;SDS011;16066;0.000;0.000;2022-08-21T16:09:00;2.70;;;1.40;;
28958;SDS011;16066;0.000;0.000;2022-08-21T16:11:25;1.60;;;1.20;;
28958;SDS011;16066;0.000;0.000;2022-08-21T16:13:52;4.00;;;1.70;;
28958;SDS011;16066;0.000;0.000;2022-08-21T16:16:19;3.57;;;1.80;;
28958;SDS011;16066;0.000;0.000;2022-08-21T16:18:47;2.73;;;1.50;;
28958;SDS011;16066;0.000;0.000;2022-08-21T16:21:14;2.17;;;1.57;;
28958;SDS011;16066;0.000;0.000;2022-08-21T16:23:40;3.70;;;1.93;;
28958;SDS011;16066;0.000;0.000;2022-08-21T16:26:07;1.70;;;1.20;;